sensor_id;sensor_type;location;lat;lon;timestamp;pressure;altitude;pressure_sealevel;temperature;humidity
57644;BME280;43474;46.510;6.686;2023-05-01T00:01:04;96437.03;;;11.57;100.00
57644;BME280;43474;46.510;6.686;2023-05-01T00:03:32;96441.88;;;11.60;100.00
57644;BME280;43474;46.510;6.686;2023-05-01T00:05:59;96441.38;;;11.63;100.00
57644;BME280;43474;46.510;6.686;2023-05-01T00:08:25;96434.69;;;11.60;100.00
57644;BME280;43474;46.510;6.686;2023-05-01T00:10:51;96429.31;;;11.55;100.00
57644;BME280;43474;46.510;6.686;2023-05-01T00:13:17;96419.75;;;11.54;100.00
57644;BME280;43474;46.510;6.686;2023-05-01T00:15:46;96425.22;;;11.64;100.00
57644;BME280;43474;46.510;6.686;2023-05-01T00:18:12;96423.03;;;11.61;100.00
57644;BME280;43474;46.510;6.686;2023-05-01T00:20:38;96418.44;;;11.57;100.00
57644;BME280;43474;46.510;6.686;2023-05-01T00:23:04;96405.44;;;11.55;100.00
57644;BME280;43474;46.510;6.686;2023-05-01T00:25:29;96402.53;;;11.57;100.00
57644;BME280;43474;46.510;6.686;2023-05-01T00:27:56;96398.28;;;11.56;100.00
57644;BME280;43474;46.510;6.686;2023-05-01T00:30:21;96405.00;;;11.63;100.00
57644;BME280;43474;46.510;6.686;2023-05-01T00:32:47;96412.41;;;11.61;100.00
57644;BME280;43474;46.510;6.686;2023-05-01T00:35:12;96393.44;;;11.53;100.00
57644;BME280;43474;46.510;6.686;2023-05-01T00:37:38;96396.09;;;11.53;100.00
57644;BME280;43474;46.510;6.686;2023-05-01T00:40:04;96395.94;;;11.59;100.00
57644;BME280;43474;46.510;6.686;2023-05-01T00:42:34;96392.09;;;11.50;100.00
57644;BME280;43474;46.510;6.686;2023-05-01T00:45:00;96404.19;;;11.63;100.00
57644;BME280;43474;46.510;6.686;2023-05-01T00:47:26;96383.41;;;11.55;100.00
57644;BME280;43474;46.510;6.686;2023-05-01T00:49:51;96402.84;;;11.60;100.00
57644;BME280;43474;46.510;6.686;2023-05-01T00:52:18;96382.81;;;11.53;100.00
57644;BME280;43474;46.510;6.686;2023-05-01T00:54:44;96379.28;;;11.47;100.00
57644;BME280;43474;46.510;6.686;2023-05-01T00:57:09;96384.13;;;11.50;100.00
57644;BME280;43474;46.510;6.686;2023-05-01T00:59:35;96358.78;;;11.43;100.00
57644;BME280;43474;46.510;6.686;2023-05-01T01:02:01;96366.53;;;11.44;100.00
57644;BME280;43474;46.510;6.686;2023-05-01T01:04:27;96370.34;;;11.53;100.00
57644;BME280;43474;46.510;6.686;2023-05-01T01:07:10;96349.56;;;11.45;100.00
57644;BME280;43474;46.510;6.686;2023-05-01T01:12:45;96359.19;;;11.51;100.00
57644;BME280;43474;46.510;6.686;2023-05-01T01:15:18;96350.81;;;11.43;100.00
57644;BME280;43474;46.510;6.686;2023-05-01T01:18:18;96359.50;;;11.55;100.00
57644;BME280;43474;46.510;6.686;2023-05-01T01:21:00;96335.97;;;11.42;100.00
57644;BME280;43474;46.510;6.686;2023-05-01T01:29:39;96346.50;;;11.36;100.00
57644;BME280;43474;46.510;6.686;2023-05-01T01:33:11;96347.31;;;11.37;100.00
57644;BME280;43474;46.510;6.686;2023-05-01T01:35:20;96348.81;;;11.33;100.00
57644;BME280;43474;46.510;6.686;2023-05-01T01:37:56;96349.56;;;11.28;100.00
57644;BME280;43474;46.510;6.686;2023-05-01T01:40:32;96348.03;;;11.16;100.00
57644;BME280;43474;46.510;6.686;2023-05-01T01:43:02;96349.72;;;11.22;100.00
57644;BME280;43474;46.510;6.686;2023-05-01T01:45:39;96346.44;;;11.15;100.00
57644;BME280;43474;46.510;6.686;2023-05-01T01:48:16;96338.81;;;11.01;100.00
57644;BME280;43474;46.510;6.686;2023-05-01T01:50:44;96335.50;;;11.11;100.00
57644;BME280;43474;46.510;6.686;2023-05-01T01:53:13;96333.66;;;11.11;100.00
57644;BME280;43474;46.510;6.686;2023-05-01T01:55:42;96330.84;;;11.01;100.00
57644;BME280;43474;46.510;6.686;2023-05-01T01:58:10;96347.47;;;11.13;100.00
57644;BME280;43474;46.510;6.686;2023-05-01T02:00:38;96323.53;;;11.08;100.00
57644;BME280;43474;46.510;6.686;2023-05-01T02:03:08;96328.81;;;11.08;100.00
57644;BME280;43474;46.510;6.686;2023-05-01T02:05:35;96343.47;;;11.11;100.00
57644;BME280;43474;46.510;6.686;2023-05-01T02:08:03;96335.25;;;10.96;100.00
57644;BME280;43474;46.510;6.686;2023-05-01T02:10:30;96352.06;;;11.01;100.00
57644;BME280;43474;46.510;6.686;2023-05-01T02:12:57;96333.00;;;10.87;100.00
57644;BME280;43474;46.510;6.686;2023-05-01T02:15:24;96341.75;;;10.88;100.00
57644;BME280;43474;46.510;6.686;2023-05-01T02:17:51;96341.38;;;10.79;100.00
57644;BME280;43474;46.510;6.686;2023-05-01T02:20:17;96347.63;;;10.90;100.00
57644;BME280;43474;46.510;6.686;2023-05-01T02:22:44;96329.22;;;10.83;100.00
57644;BME280;43474;46.510;6.686;2023-05-01T02:25:12;96342.72;;;10.99;100.00
57644;BME280;43474;46.510;6.686;2023-05-01T02:27:43;96334.22;;;10.97;100.00
57644;BME280;43474;46.510;6.686;2023-05-01T02:30:11;96324.59;;;10.91;100.00
57644;BME280;43474;46.510;6.686;2023-05-01T02:32:37;96331.31;;;10.98;100.00
57644;BME280;43474;46.510;6.686;2023-05-01T02:35:03;96338.47;;;10.98;100.00
57644;BME280;43474;46.510;6.686;2023-05-01T02:37:29;96329.97;;;10.96;100.00
57644;BME280;43474;46.510;6.686;2023-05-01T02:39:56;96335.81;;;10.98;100.00
57644;BME280;43474;46.510;6.686;2023-05-01T02:42:23;96327.38;;;10.84;100.00
57644;BME280;43474;46.510;6.686;2023-05-01T02:45:03;96324.63;;;10.79;100.00
57644;BME280;43474;46.510;6.686;2023-05-01T02:47:32;96342.47;;;10.83;100.00
57644;BME280;43474;46.510;6.686;2023-05-01T02:49:59;96329.47;;;10.82;100.00
57644;BME280;43474;46.510;6.686;2023-05-01T02:52:26;96324.84;;;10.89;100.00
57644;BME280;43474;46.510;6.686;2023-05-01T02:54:52;96335.66;;;10.87;100.00
57644;BME280;43474;46.510;6.686;2023-05-01T02:57:17;96330.75;;;10.79;100.00
57644;BME280;43474;46.510;6.686;2023-05-01T02:59:45;96324.72;;;10.84;100.00
57644;BME280;43474;46.510;6.686;2023-05-01T03:02:10;96315.06;;;10.78;100.00
57644;BME280;43474;46.510;6.686;2023-05-01T03:04:36;96318.06;;;10.81;100.00
57644;BME280;43474;46.510;6.686;2023-05-01T03:07:02;96328.41;;;10.83;100.00
57644;BME280;43474;46.510;6.686;2023-05-01T03:09:30;96332.91;;;10.82;100.00
57644;BME280;43474;46.510;6.686;2023-05-01T03:11:56;96338.22;;;10.82;100.00
57644;BME280;43474;46.510;6.686;2023-05-01T03:14:22;96337.41;;;10.82;100.00
57644;BME280;43474;46.510;6.686;2023-05-01T03:16:48;96338.09;;;10.89;100.00
57644;BME280;43474;46.510;6.686;2023-05-01T03:19:13;96318.31;;;10.80;100.00
57644;BME280;43474;46.510;6.686;2023-05-01T03:21:39;96336.31;;;10.95;100.00
57644;BME280;43474;46.510;6.686;2023-05-01T03:24:05;96323.84;;;10.95;100.00
57644;BME280;43474;46.510;6.686;2023-05-01T03:26:31;96320.97;;;10.97;100.00
57644;BME280;43474;46.510;6.686;2023-05-01T03:28:57;96319.19;;;11.02;100.00
57644;BME280;43474;46.510;6.686;2023-05-01T03:31:23;96320.88;;;10.92;100.00
57644;BME280;43474;46.510;6.686;2023-05-01T03:33:49;96328.84;;;10.92;100.00
57644;BME280;43474;46.510;6.686;2023-05-01T03:36:14;96314.13;;;10.84;100.00
57644;BME280;43474;46.510;6.686;2023-05-01T03:38:41;96318.63;;;10.83;100.00
57644;BME280;43474;46.510;6.686;2023-05-01T03:41:07;96329.16;;;10.95;100.00
57644;BME280;43474;46.510;6.686;2023-05-01T03:43:32;96322.19;;;10.89;100.00
57644;BME280;43474;46.510;6.686;2023-05-01T03:45:58;96321.84;;;10.85;100.00
57644;BME280;43474;46.510;6.686;2023-05-01T03:48:24;96322.06;;;10.84;100.00
57644;BME280;43474;46.510;6.686;2023-05-01T03:50:50;96322.81;;;10.79;100.00
57644;BME280;43474;46.510;6.686;2023-05-01T03:53:16;96330.75;;;10.79;100.00
57644;BME280;43474;46.510;6.686;2023-05-01T03:55:42;96327.28;;;10.79;100.00
57644;BME280;43474;46.510;6.686;2023-05-01T03:58:09;96330.75;;;10.79;100.00
57644;BME280;43474;46.510;6.686;2023-05-01T04:00:37;96343.94;;;10.74;100.00
57644;BME280;43474;46.510;6.686;2023-05-01T04:03:03;96332.91;;;10.66;100.00
57644;BME280;43474;46.510;6.686;2023-05-01T04:05:29;96339.00;;;10.66;100.00
57644;BME280;43474;46.510;6.686;2023-05-01T04:07:55;96342.13;;;10.63;100.00
57644;BME280;43474;46.510;6.686;2023-05-01T04:10:21;96339.47;;;10.63;100.00
57644;BME280;43474;46.510;6.686;2023-05-01T04:12:46;96333.47;;;10.68;100.00
57644;BME280;43474;46.510;6.686;2023-05-01T04:15:12;96323.19;;;10.71;100.00
57644;BME280;43474;46.510;6.686;2023-05-01T04:17:38;96324.97;;;10.66;100.00
57644;BME280;43474;46.510;6.686;2023-05-01T04:20:04;96321.19;;;10.61;100.00
57644;BME280;43474;46.510;6.686;2023-05-01T04:22:31;96326.00;;;10.65;100.00
57644;BME280;43474;46.510;6.686;2023-05-01T04:24:56;96316.13;;;10.60;100.00
57644;BME280;43474;46.510;6.686;2023-05-01T04:27:22;96329.69;;;10.64;100.00
57644;BME280;43474;46.510;6.686;2023-05-01T04:29:48;96333.03;;;10.59;100.00
57644;BME280;43474;46.510;6.686;2023-05-01T04:32:14;96329.91;;;10.62;100.00
57644;BME280;43474;46.510;6.686;2023-05-01T04:34:39;96328.16;;;10.51;100.00
57644;BME280;43474;46.510;6.686;2023-05-01T04:37:05;96330.19;;;10.32;100.00
57644;BME280;43474;46.510;6.686;2023-05-01T04:39:33;96337.22;;;10.26;100.00
57644;BME280;43474;46.510;6.686;2023-05-01T04:41:58;96331.78;;;10.33;100.00
57644;BME280;43474;46.510;6.686;2023-05-01T04:44:24;96344.56;;;10.36;100.00
57644;BME280;43474;46.510;6.686;2023-05-01T04:46:49;96337.16;;;10.38;100.00
57644;BME280;43474;46.510;6.686;2023-05-01T04:49:15;96345.81;;;10.33;100.00
57644;BME280;43474;46.510;6.686;2023-05-01T04:51:41;96341.91;;;10.36;100.00
57644;BME280;43474;46.510;6.686;2023-05-01T04:54:06;96331.47;;;10.29;100.00
57644;BME280;43474;46.510;6.686;2023-05-01T04:56:32;96310.28;;;10.29;100.00
57644;BME280;43474;46.510;6.686;2023-05-01T04:58:57;96329.00;;;10.40;100.00
57644;BME280;43474;46.510;6.686;2023-05-01T05:01:23;96322.38;;;10.25;100.00
57644;BME280;43474;46.510;6.686;2023-05-01T05:03:48;96315.97;;;10.38;100.00
57644;BME280;43474;46.510;6.686;2023-05-01T05:06:14;96305.19;;;10.28;100.00
57644;BME280;43474;46.510;6.686;2023-05-01T05:08:40;96316.03;;;10.26;100.00
57644;BME280;43474;46.510;6.686;2023-05-01T05:11:05;96316.03;;;10.26;100.00
57644;BME280;43474;46.510;6.686;2023-05-01T05:13:31;96312.28;;;10.39;100.00
57644;BME280;43474;46.510;6.686;2023-05-01T05:15:57;96311.19;;;10.35;100.00
57644;BME280;43474;46.510;6.686;2023-05-01T05:18:22;96313.66;;;10.42;100.00
57644;BME280;43474;46.510;6.686;2023-05-01T05:20:48;96316.56;;;10.40;100.00
57644;BME280;43474;46.510;6.686;2023-05-01T05:23:13;96323.63;;;10.34;100.00
57644;BME280;43474;46.510;6.686;2023-05-01T05:25:39;96318.31;;;10.34;100.00
57644;BME280;43474;46.510;6.686;2023-05-01T05:28:05;96334.31;;;10.40;100.00
57644;BME280;43474;46.510;6.686;2023-05-01T05:30:30;96330.72;;;10.34;100.00
57644;BME280;43474;46.510;6.686;2023-05-01T05:32:56;96326.28;;;10.34;100.00
57644;BME280;43474;46.510;6.686;2023-05-01T05:35:22;96319.34;;;10.33;100.00
57644;BME280;43474;46.510;6.686;2023-05-01T05:37:47;96324.09;;;10.31;100.00
57644;BME280;43474;46.510;6.686;2023-05-01T05:40:13;96326.91;;;10.42;100.00
57644;BME280;43474;46.510;6.686;2023-05-01T05:42:39;96334.63;;;10.43;100.00
57644;BME280;43474;46.510;6.686;2023-05-01T05:45:05;96324.63;;;10.33;100.00
57644;BME280;43474;46.510;6.686;2023-05-01T05:47:31;96340.63;;;10.39;100.00
57644;BME280;43474;46.510;6.686;2023-05-01T05:49:57;96347.66;;;10.45;100.00
57644;BME280;43474;46.510;6.686;2023-05-01T05:52:22;96336.88;;;10.34;100.00
57644;BME280;43474;46.510;6.686;2023-05-01T05:54:48;96354.88;;;10.49;100.00
57644;BME280;43474;46.510;6.686;2023-05-01T05:57:13;96341.72;;;10.54;100.00
57644;BME280;43474;46.510;6.686;2023-05-01T05:59:39;96348.63;;;10.55;100.00
57644;BME280;43474;46.510;6.686;2023-05-01T06:02:04;96350.38;;;10.50;100.00
57644;BME280;43474;46.510;6.686;2023-05-01T06:04:30;96344.41;;;10.43;100.00
57644;BME280;43474;46.510;6.686;2023-05-01T06:06:56;96341.63;;;10.49;100.00
57644;BME280;43474;46.510;6.686;2023-05-01T06:09:22;96347.25;;;10.53;100.00
57644;BME280;43474;46.510;6.686;2023-05-01T06:11:47;96347.50;;;10.51;100.00
57644;BME280;43474;46.510;6.686;2023-05-01T06:14:13;96338.16;;;10.49;100.00
57644;BME280;43474;46.510;6.686;2023-05-01T06:16:39;96339.97;;;10.60;100.00
57644;BME280;43474;46.510;6.686;2023-05-01T06:19:05;96336.66;;;10.53;100.00
57644;BME280;43474;46.510;6.686;2023-05-01T06:21:32;96341.81;;;10.59;100.00
57644;BME280;43474;46.510;6.686;2023-05-01T06:23:58;96336.81;;;10.63;100.00
57644;BME280;43474;46.510;6.686;2023-05-01T06:26:23;96321.97;;;10.62;100.00
57644;BME280;43474;46.510;6.686;2023-05-01T06:28:50;96330.59;;;10.69;100.00
57644;BME280;43474;46.510;6.686;2023-05-01T06:31:16;96320.47;;;10.83;100.00
57644;BME280;43474;46.510;6.686;2023-05-01T06:33:41;96328.59;;;10.93;100.00
57644;BME280;43474;46.510;6.686;2023-05-01T06:36:07;96341.53;;;11.06;100.00
57644;BME280;43474;46.510;6.686;2023-05-01T06:38:32;96327.72;;;11.04;100.00
57644;BME280;43474;46.510;6.686;2023-05-01T06:40:58;96347.41;;;11.25;100.00
57644;BME280;43474;46.510;6.686;2023-05-01T06:43:24;96338.53;;;11.36;100.00
57644;BME280;43474;46.510;6.686;2023-05-01T06:45:55;96335.09;;;11.36;100.00
57644;BME280;43474;46.510;6.686;2023-05-01T06:48:21;96331.72;;;11.41;100.00
57644;BME280;43474;46.510;6.686;2023-05-01T06:50:46;96332.72;;;11.56;100.00
57644;BME280;43474;46.510;6.686;2023-05-01T06:53:12;96340.81;;;11.67;100.00
57644;BME280;43474;46.510;6.686;2023-05-01T06:55:37;96335.19;;;11.63;100.00
57644;BME280;43474;46.510;6.686;2023-05-01T06:58:03;96336.50;;;11.60;100.00
57644;BME280;43474;46.510;6.686;2023-05-01T07:00:29;96348.16;;;11.59;100.00
57644;BME280;43474;46.510;6.686;2023-05-01T07:02:55;96344.06;;;11.52;100.00
57644;BME280;43474;46.510;6.686;2023-05-01T07:05:20;96346.56;;;11.42;100.00
57644;BME280;43474;46.510;6.686;2023-05-01T07:07:47;96352.22;;;11.45;100.00
57644;BME280;43474;46.510;6.686;2023-05-01T07:10:13;96338.00;;;11.34;100.00
57644;BME280;43474;46.510;6.686;2023-05-01T07:12:39;96346.56;;;11.42;100.00
57644;BME280;43474;46.510;6.686;2023-05-01T07:15:05;96341.91;;;11.49;100.00
57644;BME280;43474;46.510;6.686;2023-05-01T07:17:31;96339.47;;;11.64;100.00
57644;BME280;43474;46.510;6.686;2023-05-01T07:19:56;96342.19;;;11.69;100.00
57644;BME280;43474;46.510;6.686;2023-05-01T07:22:22;96343.22;;;11.85;100.00
57644;BME280;43474;46.510;6.686;2023-05-01T07:24:48;96347.94;;;12.00;100.00
57644;BME280;43474;46.510;6.686;2023-05-01T07:27:13;96360.22;;;12.06;100.00
57644;BME280;43474;46.510;6.686;2023-05-01T07:29:39;96355.16;;;12.04;100.00
57644;BME280;43474;46.510;6.686;2023-05-01T07:32:05;96366.97;;;12.13;100.00
57644;BME280;43474;46.510;6.686;2023-05-01T07:34:31;96349.38;;;12.12;100.00
57644;BME280;43474;46.510;6.686;2023-05-01T07:36:57;96359.41;;;12.27;100.00
57644;BME280;43474;46.510;6.686;2023-05-01T07:39:22;96348.22;;;12.25;100.00
57644;BME280;43474;46.510;6.686;2023-05-01T07:41:48;96339.44;;;12.25;100.00
57644;BME280;43474;46.510;6.686;2023-05-01T07:44:14;96362.28;;;12.48;100.00
57644;BME280;43474;46.510;6.686;2023-05-01T07:46:39;96359.88;;;12.46;100.00
57644;BME280;43474;46.510;6.686;2023-05-01T07:49:05;96363.44;;;12.57;100.00
57644;BME280;43474;46.510;6.686;2023-05-01T07:51:31;96373.63;;;12.65;100.00
57644;BME280;43474;46.510;6.686;2023-05-01T07:53:57;96353.22;;;12.44;100.00
57644;BME280;43474;46.510;6.686;2023-05-01T07:56:23;96379.53;;;12.45;100.00
57644;BME280;43474;46.510;6.686;2023-05-01T07:58:48;96375.41;;;12.32;100.00
57644;BME280;43474;46.510;6.686;2023-05-01T08:01:14;96390.94;;;12.19;100.00
57644;BME280;43474;46.510;6.686;2023-05-01T08:03:40;96396.22;;;11.97;100.00
57644;BME280;43474;46.510;6.686;2023-05-01T08:06:06;96393.91;;;11.67;100.00
57644;BME280;43474;46.510;6.686;2023-05-01T08:08:31;96401.66;;;11.51;100.00
57644;BME280;43474;46.510;6.686;2023-05-01T08:10:57;96404.22;;;11.46;100.00
57644;BME280;43474;46.510;6.686;2023-05-01T08:13:22;96399.22;;;11.33;100.00
57644;BME280;43474;46.510;6.686;2023-05-01T08:15:48;96383.00;;;11.12;100.00
57644;BME280;43474;46.510;6.686;2023-05-01T08:18:13;96393.47;;;11.19;100.00
57644;BME280;43474;46.510;6.686;2023-05-01T08:20:48;96403.31;;;11.24;100.00
57644;BME280;43474;46.510;6.686;2023-05-01T08:23:15;96390.91;;;11.24;100.00
57644;BME280;43474;46.510;6.686;2023-05-01T08:25:41;96397.38;;;11.33;100.00
57644;BME280;43474;46.510;6.686;2023-05-01T08:28:06;96396.50;;;11.28;100.00
57644;BME280;43474;46.510;6.686;2023-05-01T08:30:32;96397.88;;;11.30;100.00
57644;BME280;43474;46.510;6.686;2023-05-01T08:32:58;96404.72;;;11.26;100.00
57644;BME280;43474;46.510;6.686;2023-05-01T08:35:23;96426.81;;;11.32;100.00
57644;BME280;43474;46.510;6.686;2023-05-01T08:37:49;96416.91;;;11.27;100.00
57644;BME280;43474;46.510;6.686;2023-05-01T08:40:15;96408.50;;;11.30;100.00
57644;BME280;43474;46.510;6.686;2023-05-01T08:42:41;96419.59;;;11.44;100.00
57644;BME280;43474;46.510;6.686;2023-05-01T08:45:07;96426.59;;;11.50;100.00
57644;BME280;43474;46.510;6.686;2023-05-01T08:47:35;96441.44;;;11.68;100.00
57644;BME280;43474;46.510;6.686;2023-05-01T08:50:03;96447.81;;;11.67;100.00
57644;BME280;43474;46.510;6.686;2023-05-01T08:52:29;96438.88;;;11.56;100.00
57644;BME280;43474;46.510;6.686;2023-05-01T08:54:57;96424.19;;;11.49;100.00
57644;BME280;43474;46.510;6.686;2023-05-01T08:57:24;96439.50;;;11.63;100.00
57644;BME280;43474;46.510;6.686;2023-05-01T08:59:52;96430.13;;;11.56;100.00
57644;BME280;43474;46.510;6.686;2023-05-01T09:02:18;96421.91;;;11.57;100.00
57644;BME280;43474;46.510;6.686;2023-05-01T09:04:46;96436.06;;;11.63;100.00
57644;BME280;43474;46.510;6.686;2023-05-01T09:07:12;96429.88;;;11.57;100.00
57644;BME280;43474;46.510;6.686;2023-05-01T09:09:37;96445.06;;;11.62;100.00
57644;BME280;43474;46.510;6.686;2023-05-01T09:12:23;96449.88;;;11.48;100.00
57644;BME280;43474;46.510;6.686;2023-05-01T09:14:53;96451.09;;;11.41;100.00
57644;BME280;43474;46.510;6.686;2023-05-01T09:17:21;96461.56;;;11.30;100.00
57644;BME280;43474;46.510;6.686;2023-05-01T09:19:48;96446.44;;;11.31;100.00
57644;BME280;43474;46.510;6.686;2023-05-01T09:22:17;96452.28;;;11.33;100.00
57644;BME280;43474;46.510;6.686;2023-05-01T09:24:44;96455.38;;;11.42;100.00
57644;BME280;43474;46.510;6.686;2023-05-01T09:27:11;96452.00;;;11.46;100.00
57644;BME280;43474;46.510;6.686;2023-05-01T09:29:42;96454.81;;;11.56;100.00
57644;BME280;43474;46.510;6.686;2023-05-01T09:34:47;96452.22;;;11.78;100.00
57644;BME280;43474;46.510;6.686;2023-05-01T09:37:29;96462.13;;;12.00;100.00
57644;BME280;43474;46.510;6.686;2023-05-01T09:42:32;96465.75;;;12.32;100.00
57644;BME280;43474;46.510;6.686;2023-05-01T09:45:03;96450.38;;;12.34;100.00
57644;BME280;43474;46.510;6.686;2023-05-01T09:47:29;96466.88;;;12.36;100.00
57644;BME280;43474;46.510;6.686;2023-05-01T09:49:56;96468.00;;;12.40;100.00
57644;BME280;43474;46.510;6.686;2023-05-01T09:52:29;96466.19;;;12.24;100.00
57644;BME280;43474;46.510;6.686;2023-05-01T09:57:38;96482.50;;;11.94;100.00
57644;BME280;43474;46.510;6.686;2023-05-01T10:00:04;96478.66;;;11.85;100.00
57644;BME280;43474;46.510;6.686;2023-05-01T10:02:34;96471.22;;;11.87;100.00
57644;BME280;43474;46.510;6.686;2023-05-01T10:05:01;96463.00;;;11.72;100.00
57644;BME280;43474;46.510;6.686;2023-05-01T10:07:28;96467.59;;;11.76;100.00
57644;BME280;43474;46.510;6.686;2023-05-01T10:09:54;96464.53;;;11.68;100.00
57644;BME280;43474;46.510;6.686;2023-05-01T10:12:24;96469.63;;;11.69;100.00
57644;BME280;43474;46.510;6.686;2023-05-01T10:14:51;96485.63;;;11.74;100.00
57644;BME280;43474;46.510;6.686;2023-05-01T10:17:17;96489.97;;;11.80;100.00
57644;BME280;43474;46.510;6.686;2023-05-01T10:19:47;96477.25;;;11.82;100.00
57644;BME280;43474;46.510;6.686;2023-05-01T10:22:13;96485.94;;;11.78;100.00
57644;BME280;43474;46.510;6.686;2023-05-01T10:24:40;96493.72;;;11.68;100.00
57644;BME280;43474;46.510;6.686;2023-05-01T10:27:06;96495.25;;;11.63;100.00
57644;BME280;43474;46.510;6.686;2023-05-01T10:29:36;96473.78;;;11.48;100.00
57644;BME280;43474;46.510;6.686;2023-05-01T10:32:03;96480.94;;;11.48;100.00
57644;BME280;43474;46.510;6.686;2023-05-01T10:34:33;96476.91;;;11.62;100.00
57644;BME280;43474;46.510;6.686;2023-05-01T10:37:03;96475.47;;;11.71;100.00
57644;BME280;43474;46.510;6.686;2023-05-01T10:39:33;96489.16;;;11.80;100.00
57644;BME280;43474;46.510;6.686;2023-05-01T10:42:06;96497.22;;;11.85;100.00
57644;BME280;43474;46.510;6.686;2023-05-01T10:44:36;96486.59;;;11.85;100.00
57644;BME280;43474;46.510;6.686;2023-05-01T10:50:08;96498.88;;;12.25;100.00
57644;BME280;43474;46.510;6.686;2023-05-01T10:55:35;96481.56;;;12.22;100.00
57644;BME280;43474;46.510;6.686;2023-05-01T10:58:00;96474.28;;;12.34;100.00
57644;BME280;43474;46.510;6.686;2023-05-01T11:00:26;96487.78;;;12.50;100.00
57644;BME280;43474;46.510;6.686;2023-05-01T11:06:04;96476.59;;;12.70;100.00
57644;BME280;43474;46.510;6.686;2023-05-01T11:08:37;96490.41;;;12.72;100.00
57644;BME280;43474;46.510;6.686;2023-05-01T11:14:00;96480.06;;;12.48;100.00
57644;BME280;43474;46.510;6.686;2023-05-01T11:16:46;96475.28;;;12.50;100.00
57644;BME280;43474;46.510;6.686;2023-05-01T11:22:11;96482.13;;;12.24;100.00
57644;BME280;43474;46.510;6.686;2023-05-01T11:24:37;96489.78;;;12.21;100.00
57644;BME280;43474;46.510;6.686;2023-05-01T11:27:03;96471.66;;;12.18;100.00
57644;BME280;43474;46.510;6.686;2023-05-01T11:29:32;96474.63;;;12.21;100.00
57644;BME280;43474;46.510;6.686;2023-05-01T11:31:59;96482.56;;;12.38;100.00
57644;BME280;43474;46.510;6.686;2023-05-01T11:34:25;96449.00;;;12.32;100.00
57644;BME280;43474;46.510;6.686;2023-05-01T11:36:52;96476.94;;;12.56;100.00
57644;BME280;43474;46.510;6.686;2023-05-01T11:39:18;96464.41;;;12.74;100.00
57644;BME280;43474;46.510;6.686;2023-05-01T11:41:45;96464.84;;;12.92;100.00
57644;BME280;43474;46.510;6.686;2023-05-01T11:44:13;96465.63;;;13.15;100.00
57644;BME280;43474;46.510;6.686;2023-05-01T11:46:39;96458.53;;;13.48;100.00
57644;BME280;43474;46.510;6.686;2023-05-01T11:49:04;96444.31;;;13.69;100.00
57644;BME280;43474;46.510;6.686;2023-05-01T11:51:30;96462.16;;;14.11;100.00
57644;BME280;43474;46.510;6.686;2023-05-01T11:54:05;96458.91;;;14.51;100.00
57644;BME280;43474;46.510;6.686;2023-05-01T11:56:32;96459.06;;;14.87;100.00
57644;BME280;43474;46.510;6.686;2023-05-01T11:58:59;96451.88;;;14.87;100.00
57644;BME280;43474;46.510;6.686;2023-05-01T12:01:40;96453.50;;;14.98;100.00
57644;BME280;43474;46.510;6.686;2023-05-01T12:04:06;96459.34;;;15.00;100.00
57644;BME280;43474;46.510;6.686;2023-05-01T12:06:44;96453.50;;;14.98;100.00
57644;BME280;43474;46.510;6.686;2023-05-01T12:09:15;96451.63;;;15.04;100.00
57644;BME280;43474;46.510;6.686;2023-05-01T12:11:42;96457.56;;;15.27;100.00
57644;BME280;43474;46.510;6.686;2023-05-01T12:14:09;96450.59;;;15.36;100.00
57644;BME280;43474;46.510;6.686;2023-05-01T12:16:36;96423.94;;;15.71;100.00
57644;BME280;43474;46.510;6.686;2023-05-01T12:19:02;96443.13;;;15.94;100.00
57644;BME280;43474;46.510;6.686;2023-05-01T12:21:28;96445.28;;;16.02;100.00
57644;BME280;43474;46.510;6.686;2023-05-01T12:23:54;96446.59;;;16.05;100.00
57644;BME280;43474;46.510;6.686;2023-05-01T12:26:23;96459.47;;;15.87;100.00
57644;BME280;43474;46.510;6.686;2023-05-01T12:28:55;96448.50;;;15.73;100.00
57644;BME280;43474;46.510;6.686;2023-05-01T12:31:21;96445.31;;;15.71;100.00
57644;BME280;43474;46.510;6.686;2023-05-01T12:34:06;96439.66;;;15.93;100.00
57644;BME280;43474;46.510;6.686;2023-05-01T12:36:35;96442.53;;;16.27;100.00
57644;BME280;43474;46.510;6.686;2023-05-01T12:39:06;96452.41;;;16.37;100.00
57644;BME280;43474;46.510;6.686;2023-05-01T12:44:14;96439.34;;;16.20;100.00
57644;BME280;43474;46.510;6.686;2023-05-01T12:46:40;96435.06;;;16.14;100.00
57644;BME280;43474;46.510;6.686;2023-05-01T12:49:05;96451.91;;;16.20;100.00
57644;BME280;43474;46.510;6.686;2023-05-01T12:51:32;96453.28;;;16.12;100.00
57644;BME280;43474;46.510;6.686;2023-05-01T12:53:57;96447.94;;;16.12;100.00
57644;BME280;43474;46.510;6.686;2023-05-01T12:56:24;96455.16;;;16.12;100.00
57644;BME280;43474;46.510;6.686;2023-05-01T12:58:50;96431.28;;;16.31;100.00
57644;BME280;43474;46.510;6.686;2023-05-01T13:01:25;96429.28;;;16.67;100.00
57644;BME280;43474;46.510;6.686;2023-05-01T13:03:51;96438.59;;;16.79;100.00
57644;BME280;43474;46.510;6.686;2023-05-01T13:06:17;96432.22;;;16.65;100.00
57644;BME280;43474;46.510;6.686;2023-05-01T13:08:43;96437.47;;;16.31;100.00
57644;BME280;43474;46.510;6.686;2023-05-01T13:11:11;96447.22;;;16.66;100.00
57644;BME280;43474;46.510;6.686;2023-05-01T13:13:38;96441.63;;;17.17;100.00
57644;BME280;43474;46.510;6.686;2023-05-01T13:16:14;96434.16;;;17.48;100.00
57644;BME280;43474;46.510;6.686;2023-05-01T13:18:50;96450.13;;;17.64;92.73
57644;BME280;43474;46.510;6.686;2023-05-01T13:21:19;96449.00;;;17.70;100.00
57644;BME280;43474;46.510;6.686;2023-05-01T13:23:59;96450.59;;;17.76;99.42
57644;BME280;43474;46.510;6.686;2023-05-01T13:26:30;96452.78;;;17.29;92.42